createdAt,value
2023-04-23T00:00:10.466Z,6.40
2023-04-23T00:02:44.634Z,6.88
2023-04-23T00:05:13.150Z,6.88
2023-04-23T00:07:42.748Z,6.95
2023-04-23T00:10:13.492Z,7.00
2023-04-23T00:12:43.654Z,6.55
2023-04-23T00:15:12.652Z,7.22
2023-04-23T00:17:39.938Z,7.53
2023-04-23T00:20:07.997Z,6.95
2023-04-23T00:22:35.730Z,7.47
2023-04-23T00:25:03.318Z,7.82
2023-04-23T00:27:30.439Z,7.60
2023-04-23T00:29:57.520Z,8.18
2023-04-23T00:32:24.650Z,7.68
2023-04-23T00:34:51.816Z,8.25
2023-04-23T00:37:18.770Z,7.18
2023-04-23T00:39:45.750Z,7.40
2023-04-23T00:42:13.949Z,7.85
2023-04-23T00:44:44.551Z,8.50
2023-04-23T00:47:12.297Z,7.65
2023-04-23T00:49:39.553Z,7.50
2023-04-23T00:52:06.779Z,8.40
2023-04-23T00:54:34.381Z,8.40
2023-04-23T00:57:02.393Z,8.93
2023-04-23T00:59:31.775Z,8.50
2023-04-23T01:04:29.604Z,8.00
2023-04-23T01:06:57.957Z,7.70
2023-04-23T01:09:27.677Z,7.78
2023-04-23T01:11:58.041Z,8.15
2023-04-23T01:14:25.708Z,9.02
2023-04-23T01:16:53.520Z,8.60
2023-04-23T01:19:20.856Z,9.05
2023-04-23T01:21:50.078Z,8.93
2023-04-23T01:24:17.426Z,9.02
2023-04-23T01:26:46.817Z,9.13
2023-04-23T01:29:14.337Z,8.50
2023-04-23T01:31:42.244Z,9.13
2023-04-23T01:34:11.013Z,8.90
2023-04-23T01:36:38.207Z,8.73
2023-04-23T01:39:05.781Z,8.98
2023-04-23T01:41:33.995Z,8.93
2023-04-23T01:44:02.072Z,9.75
2023-04-23T01:46:29.458Z,10.43
2023-04-23T01:48:56.735Z,9.57
2023-04-23T01:51:25.710Z,9.52
2023-04-23T01:53:53.084Z,9.40
2023-04-23T01:56:25.416Z,10.73
2023-04-23T01:58:52.759Z,9.77
2023-04-23T02:01:19.770Z,10.05
2023-04-23T02:03:49.350Z,9.98
2023-04-23T02:06:16.422Z,10.40
2023-04-23T02:08:43.656Z,9.93
2023-04-23T02:11:10.666Z,10.35
2023-04-23T02:13:37.628Z,9.30
2023-04-23T02:16:05.354Z,10.55
2023-04-23T02:18:32.444Z,10.00
2023-04-23T02:21:00.336Z,10.20
2023-04-23T02:23:27.342Z,10.57
2023-04-23T02:25:54.277Z,10.13
2023-04-23T02:28:21.225Z,11.20
2023-04-23T02:30:48.440Z,11.00
2023-04-23T02:33:15.506Z,11.05
2023-04-23T02:35:42.599Z,11.80
2023-04-23T02:38:09.596Z,11.93
2023-04-23T02:40:36.721Z,13.30
2023-04-23T02:43:03.696Z,13.15
2023-04-23T02:45:30.957Z,13.48
2023-04-23T02:47:58.049Z,12.55
2023-04-23T02:50:25.142Z,11.90
2023-04-23T02:52:52.341Z,12.75
2023-04-23T02:55:19.354Z,12.75
2023-04-23T02:57:47.621Z,12.77
2023-04-23T03:00:15.280Z,13.27
2023-04-23T03:02:43.820Z,11.85
2023-04-23T03:05:12.751Z,11.30
2023-04-23T03:07:44.713Z,12.15
2023-04-23T03:10:11.839Z,12.63
2023-04-23T03:12:39.280Z,12.60
2023-04-23T03:15:07.229Z,12.80
2023-04-23T03:17:36.438Z,13.85
2023-04-23T03:20:04.404Z,12.80
2023-04-23T03:22:32.342Z,13.57
2023-04-23T03:24:59.578Z,17.83
2023-04-23T03:27:26.673Z,19.73
2023-04-23T03:29:53.768Z,18.17
2023-04-23T03:32:21.009Z,18.90
2023-04-23T03:34:48.344Z,18.55
2023-04-23T03:37:15.237Z,17.60
2023-04-23T03:39:42.458Z,16.10
2023-04-23T03:42:10.811Z,15.48
2023-04-23T03:44:39.054Z,14.07
2023-04-23T03:47:06.339Z,15.10
2023-04-23T03:49:33.874Z,13.15
2023-04-23T03:52:00.928Z,11.00
2023-04-23T03:54:29.898Z,11.52
2023-04-23T03:57:08.755Z,11.77
2023-04-23T03:59:39.409Z,10.60
2023-04-23T04:02:06.656Z,11.70
2023-04-23T04:04:34.327Z,11.27
2023-04-23T04:07:01.595Z,12.30
2023-04-23T04:09:29.524Z,11.95
2023-04-23T04:12:01.716Z,11.80
2023-04-23T04:14:29.022Z,12.10
2023-04-23T04:16:56.962Z,11.85
2023-04-23T04:19:24.474Z,12.50
2023-04-23T04:21:51.514Z,12.32
2023-04-23T04:24:18.546Z,13.00
2023-04-23T04:26:46.276Z,12.00
2023-04-23T04:29:13.489Z,11.52
2023-04-23T04:31:40.684Z,12.05
2023-04-23T04:34:09.082Z,12.90
2023-04-23T04:36:36.408Z,12.25
2023-04-23T04:39:03.641Z,12.82
2023-04-23T04:41:30.777Z,12.02
2023-04-23T04:43:58.648Z,12.05
2023-04-23T04:46:33.970Z,12.63
2023-04-23T04:49:01.055Z,11.70
2023-04-23T04:51:28.593Z,11.95
2023-04-23T04:53:56.770Z,11.00
2023-04-23T04:56:24.320Z,9.70
2023-04-23T04:58:51.502Z,10.30
2023-04-23T05:01:19.555Z,10.10
2023-04-23T05:03:46.742Z,9.23
2023-04-23T05:06:13.789Z,10.40
2023-04-23T05:08:41.927Z,9.57
2023-04-23T05:11:09.097Z,9.82
2023-04-23T05:13:36.034Z,10.15
2023-04-23T05:16:02.948Z,10.93
2023-04-23T05:18:33.994Z,10.30
2023-04-23T05:21:01.394Z,9.35
2023-04-23T05:23:28.297Z,9.75
2023-04-23T05:25:57.194Z,8.98
2023-04-23T05:28:24.448Z,9.57
2023-04-23T05:30:52.112Z,8.70
2023-04-23T05:33:19.146Z,8.73
2023-04-23T05:35:46.391Z,8.75
2023-04-23T05:38:13.313Z,9.00
2023-04-23T05:40:40.533Z,9.55
2023-04-23T05:43:07.739Z,10.60
2023-04-23T05:45:34.759Z,10.27
2023-04-23T05:48:01.864Z,12.85
2023-04-23T05:50:30.182Z,15.68
2023-04-23T05:52:57.420Z,19.63
2023-04-23T05:55:24.387Z,18.45
2023-04-23T05:57:51.432Z,23.23
2023-04-23T06:00:18.391Z,19.67
2023-04-23T06:02:56.050Z,14.65
2023-04-23T06:05:25.567Z,15.23
2023-04-23T06:10:20.246Z,11.63
2023-04-23T06:12:47.874Z,10.63
2023-04-23T06:15:15.036Z,10.70
2023-04-23T06:17:41.945Z,10.77
2023-04-23T06:20:11.796Z,10.82
2023-04-23T06:22:39.645Z,9.38
2023-04-23T06:25:07.348Z,9.60
2023-04-23T06:27:34.287Z,10.18
2023-04-23T06:30:08.500Z,9.57
2023-04-23T06:32:36.460Z,9.35
2023-04-23T06:35:09.574Z,9.07
2023-04-23T06:37:36.631Z,8.93
2023-04-23T06:40:03.876Z,8.00
2023-04-23T06:42:31.087Z,8.73
2023-04-23T06:45:19.466Z,8.77
2023-04-23T06:47:46.629Z,8.57
2023-04-23T06:50:13.595Z,8.45
2023-04-23T06:52:40.672Z,7.85
2023-04-23T06:55:08.580Z,7.95
2023-04-23T06:57:36.139Z,7.95
2023-04-23T07:00:05.742Z,8.30
2023-04-23T07:02:37.936Z,8.98
2023-04-23T07:05:05.715Z,8.77
2023-04-23T07:07:33.074Z,10.00
2023-04-23T07:10:00.395Z,9.05
2023-04-23T07:12:27.502Z,8.48
2023-04-23T07:14:54.469Z,8.88
2023-04-23T07:17:21.783Z,8.55
2023-04-23T07:19:49.606Z,8.57
2023-04-23T07:22:16.655Z,8.68
2023-04-23T07:24:43.960Z,9.02
2023-04-23T07:27:11.250Z,8.90
2023-04-23T07:29:38.304Z,8.30
2023-04-23T07:32:05.297Z,8.27
2023-04-23T07:34:32.480Z,7.93
2023-04-23T07:36:59.807Z,8.60
2023-04-23T07:39:26.981Z,7.63
2023-04-23T07:41:54.119Z,8.13
2023-04-23T07:49:15.038Z,7.78
2023-04-23T07:51:42.212Z,7.63
2023-04-23T07:54:10.608Z,7.90
2023-04-23T07:56:37.681Z,7.60
2023-04-23T07:59:06.200Z,8.40
2023-04-23T08:01:34.102Z,8.75
2023-04-23T08:04:01.597Z,7.38
2023-04-23T08:06:30.373Z,8.20
2023-04-23T08:08:57.675Z,8.52
2023-04-23T09:01:01.827Z,9.00
2023-04-23T09:03:29.725Z,8.68
2023-04-23T09:05:57.459Z,8.23
2023-04-23T09:08:24.708Z,8.07
2023-04-23T09:10:52.629Z,7.70
2023-04-23T09:13:21.879Z,8.23
2023-04-23T09:18:26.221Z,7.75
2023-04-23T09:20:54.365Z,7.78
2023-04-23T09:23:23.480Z,7.55
2023-04-23T09:25:50.596Z,8.02
2023-04-23T09:28:20.766Z,7.95
2023-04-23T09:30:49.817Z,7.22
2023-04-23T09:33:17.670Z,7.47
2023-04-23T09:35:44.949Z,8.05
2023-04-23T09:38:12.102Z,8.63
2023-04-23T09:40:39.211Z,7.85
2023-04-23T09:43:10.182Z,7.70
2023-04-23T09:45:37.965Z,7.43
2023-04-23T09:48:06.061Z,6.95
2023-04-23T09:50:38.610Z,7.53
2023-04-23T09:53:09.132Z,7.65
2023-04-23T09:55:42.019Z,7.35
2023-04-23T09:58:15.962Z,7.22
2023-04-23T10:00:47.224Z,6.90
2023-04-23T10:03:16.854Z,6.85
2023-04-23T10:06:00.623Z,7.93
2023-04-23T10:08:32.374Z,7.47
2023-04-23T10:11:10.045Z,6.82
2023-04-23T10:13:47.381Z,7.35
2023-04-23T10:16:24.392Z,6.93
2023-04-23T10:18:59.759Z,7.47
2023-04-23T10:21:39.482Z,6.47
2023-04-23T10:24:14.475Z,6.88
2023-04-23T10:26:43.544Z,6.53
2023-04-23T10:29:20.824Z,6.30
2023-04-23T10:31:48.950Z,6.47
2023-04-23T10:34:16.438Z,7.53
2023-04-23T10:36:43.973Z,7.03
2023-04-23T10:39:12.426Z,6.82
2023-04-23T10:41:42.992Z,6.72
2023-04-23T10:44:17.590Z,6.43
2023-04-23T10:46:58.756Z,6.10
2023-04-23T10:49:26.089Z,6.38
2023-04-23T10:54:41.850Z,5.90
2023-04-23T10:57:10.239Z,5.80
2023-04-23T10:59:56.506Z,5.68
2023-04-23T11:02:25.756Z,5.60
2023-04-23T11:05:01.608Z,5.47
2023-04-23T11:07:32.674Z,6.15
2023-04-23T11:10:01.572Z,5.15
2023-04-23T11:12:32.715Z,5.55
2023-04-23T11:15:12.322Z,5.35
2023-04-23T11:17:39.624Z,5.00
2023-04-23T11:20:18.985Z,5.63
2023-04-23T11:22:49.101Z,5.35
2023-04-23T11:25:22.142Z,5.53
2023-04-23T11:27:51.539Z,4.57
2023-04-23T11:30:21.464Z,5.45
2023-04-23T11:32:57.737Z,5.97
2023-04-23T11:35:30.388Z,5.22
2023-04-23T11:37:57.817Z,5.03
2023-04-23T11:40:25.898Z,4.53
2023-04-23T11:42:54.973Z,4.80
2023-04-23T11:45:26.937Z,5.38
2023-04-23T11:47:56.646Z,4.85
2023-04-23T11:50:26.600Z,4.60
2023-04-23T11:52:54.543Z,4.75
2023-04-23T11:55:22.923Z,29.95
2023-04-23T11:57:52.411Z,5.03
2023-04-23T12:00:24.173Z,5.80
2023-04-23T12:02:56.969Z,4.57
2023-04-23T12:05:41.625Z,4.18
2023-04-23T12:08:11.128Z,3.70
2023-04-23T12:10:46.632Z,4.30
2023-04-23T12:13:18.688Z,4.18
2023-04-23T12:15:50.524Z,4.45
2023-04-23T12:18:20.601Z,3.90
2023-04-23T12:20:47.594Z,4.07
2023-04-23T12:23:14.918Z,4.18
2023-04-23T12:25:42.700Z,4.03
2023-04-23T12:28:09.819Z,4.03
2023-04-23T12:30:44.184Z,3.85
2023-04-23T12:33:12.081Z,4.88
2023-04-23T12:35:41.674Z,4.18
2023-04-23T12:38:24.901Z,3.63
2023-04-23T12:40:57.105Z,3.60
2023-04-23T12:43:25.936Z,3.60
2023-04-23T12:45:54.741Z,4.10
2023-04-23T12:48:21.927Z,3.75
2023-04-23T12:50:49.066Z,3.95
2023-04-23T12:53:19.170Z,4.00
2023-04-23T12:55:46.296Z,4.05
2023-04-23T12:58:13.419Z,4.85
2023-04-23T13:00:40.699Z,3.67
2023-04-23T13:03:08.623Z,4.13
2023-04-23T13:05:35.992Z,3.65
2023-04-23T13:08:02.894Z,3.70
2023-04-23T13:10:30.993Z,4.15
2023-04-23T13:12:58.248Z,4.30
2023-04-23T13:15:28.696Z,11.02
2023-04-23T13:17:55.983Z,3.40
2023-04-23T13:20:23.464Z,3.38
2023-04-23T13:22:50.679Z,3.17
2023-04-23T13:25:17.618Z,3.53
2023-04-23T13:27:48.914Z,4.00
2023-04-23T13:30:16.100Z,3.85
2023-04-23T13:32:43.583Z,9.15
2023-04-23T13:35:10.668Z,5.55
2023-04-23T13:37:41.177Z,3.95
2023-04-23T13:40:08.466Z,23.05
2023-04-23T13:42:35.568Z,5.43
2023-04-23T13:45:05.158Z,8.27
2023-04-23T13:48:11.844Z,18.60
2023-04-23T13:50:39.750Z,3.17
2023-04-23T13:53:10.469Z,3.57
2023-04-23T13:55:38.373Z,4.63
2023-04-23T13:58:07.001Z,3.75
2023-04-23T14:00:34.370Z,3.03
2023-04-23T14:03:01.608Z,3.42
2023-04-23T14:05:28.849Z,3.22
2023-04-23T14:07:55.795Z,3.20
2023-04-23T14:10:23.114Z,3.40
2023-04-23T14:12:51.602Z,3.40
2023-04-23T14:15:18.908Z,3.40
2023-04-23T14:17:46.064Z,3.33
2023-04-23T14:20:15.568Z,3.70
2023-04-23T14:22:43.412Z,3.42
2023-04-23T14:25:15.450Z,3.03
2023-04-23T14:27:50.109Z,2.85
2023-04-23T14:30:21.365Z,3.20
2023-04-23T14:32:49.987Z,3.05
2023-04-23T14:35:17.708Z,3.15
2023-04-23T14:37:45.752Z,3.20
2023-04-23T14:40:15.906Z,3.13
2023-04-23T14:42:43.254Z,7.18
2023-04-23T14:45:10.642Z,3.58
2023-04-23T14:47:37.994Z,3.85
2023-04-23T14:50:05.872Z,5.25
2023-04-23T14:52:33.028Z,4.53
2023-04-23T14:55:00.029Z,3.90
2023-04-23T14:57:28.332Z,4.32
2023-04-23T14:59:56.015Z,5.05
2023-04-23T15:02:25.686Z,4.85
2023-04-23T15:04:52.814Z,5.45
2023-04-23T15:07:19.740Z,5.55
2023-04-23T15:09:46.835Z,4.72
2023-04-23T15:12:41.127Z,4.88
2023-04-23T15:15:44.827Z,4.80
2023-04-23T15:18:14.366Z,5.10
2023-04-23T15:20:42.304Z,4.93
2023-04-23T15:23:10.934Z,5.00
2023-04-23T15:25:39.357Z,4.85
2023-04-23T15:28:07.200Z,4.70
2023-04-23T15:30:34.544Z,4.57
2023-04-23T15:33:01.886Z,4.28
2023-04-23T15:35:29.025Z,4.45
2023-04-23T15:37:57.127Z,4.38
2023-04-23T15:40:24.469Z,4.57
2023-04-23T15:42:51.545Z,3.78
2023-04-23T15:45:18.788Z,4.40
2023-04-23T15:47:45.789Z,4.07
2023-04-23T15:50:13.250Z,4.07
2023-04-23T15:52:41.798Z,3.78
2023-04-23T15:55:09.370Z,4.40
2023-04-23T15:57:36.341Z,4.60
2023-04-23T16:00:03.896Z,4.10
2023-04-23T16:02:39.260Z,4.45
2023-04-23T16:05:06.921Z,4.18
2023-04-23T16:07:34.804Z,4.10
2023-04-23T16:10:02.546Z,4.25
2023-04-23T16:12:31.301Z,4.40
2023-04-23T16:14:59.472Z,4.50
2023-04-23T16:17:30.775Z,5.30
2023-04-23T16:19:58.067Z,4.40
2023-04-23T16:22:25.559Z,4.38
2023-04-23T16:24:52.792Z,4.70
2023-04-23T16:27:19.734Z,4.20
2023-04-23T16:29:46.777Z,4.60
2023-04-23T16:32:13.729Z,4.13
2023-04-23T16:34:41.682Z,4.60
2023-04-23T16:37:09.814Z,4.93
2023-04-23T16:39:36.927Z,4.57
2023-04-23T16:42:04.092Z,4.65
2023-04-23T16:44:31.116Z,4.82
2023-04-23T16:46:58.741Z,5.80
2023-04-23T16:49:25.808Z,5.53
2023-04-23T16:51:54.494Z,5.20
2023-04-23T16:54:22.726Z,6.10
2023-04-23T16:56:49.799Z,6.05
2023-04-23T16:59:17.140Z,5.75
2023-04-23T17:01:44.174Z,5.90
2023-04-23T17:04:11.650Z,6.20
2023-04-23T17:06:38.891Z,6.93
2023-04-23T17:09:08.701Z,5.90
2023-04-23T17:11:36.574Z,6.53
2023-04-23T17:14:03.455Z,6.70
2023-04-23T17:16:37.462Z,6.35
2023-04-23T17:19:06.424Z,6.45
2023-04-23T17:21:33.475Z,6.30
2023-04-23T17:24:00.711Z,6.65
2023-04-23T17:26:28.908Z,6.13
2023-04-23T17:28:56.715Z,6.32
2023-04-23T17:31:23.997Z,6.80
2023-04-23T17:33:53.533Z,6.88
2023-04-23T17:36:20.796Z,7.70
2023-04-23T17:38:47.817Z,6.88
2023-04-23T17:41:16.990Z,7.45
2023-04-23T17:43:45.024Z,7.25
2023-04-23T17:46:12.158Z,7.18
2023-04-23T17:48:39.336Z,7.38
2023-04-23T17:51:06.564Z,6.97
2023-04-23T17:53:34.175Z,7.32
2023-04-23T17:56:03.286Z,7.60
2023-04-23T18:00:57.802Z,7.40
2023-04-23T18:03:27.046Z,7.50
2023-04-23T18:05:54.534Z,8.30
2023-04-23T18:08:21.676Z,7.38
2023-04-23T18:10:49.221Z,7.97
2023-04-23T18:13:17.078Z,8.43
2023-04-23T18:15:49.390Z,7.13
2023-04-23T18:18:17.897Z,7.28
2023-04-23T18:20:46.365Z,7.73
2023-04-23T18:23:14.393Z,7.88
2023-04-23T18:25:42.205Z,7.50
2023-04-23T18:28:09.871Z,9.25
2023-04-23T18:30:38.142Z,7.85
2023-04-23T18:33:35.820Z,7.90
2023-04-23T18:36:13.712Z,7.63
2023-04-23T18:38:45.390Z,7.88
2023-04-23T18:41:12.369Z,8.73
2023-04-23T18:43:39.585Z,7.18
2023-04-23T18:46:06.675Z,7.85
2023-04-23T18:48:33.823Z,8.02
2023-04-23T18:51:06.402Z,7.43
2023-04-23T18:53:33.619Z,7.57
2023-04-23T18:56:01.442Z,7.60
2023-04-23T18:58:30.196Z,8.35
2023-04-23T19:00:57.731Z,7.75
2023-04-23T19:03:27.076Z,7.53
2023-04-23T19:05:56.008Z,7.13
2023-04-23T19:08:28.486Z,7.97
2023-04-23T19:10:56.630Z,8.30
2023-04-23T19:13:24.502Z,8.47
2023-04-23T19:15:51.800Z,7.78
2023-04-23T19:18:19.746Z,7.78
2023-04-23T19:20:46.922Z,6.93
2023-04-23T19:23:13.985Z,7.43
2023-04-23T19:25:41.088Z,7.07
2023-04-23T19:28:08.024Z,8.00
2023-04-23T19:30:35.345Z,7.38
2023-04-23T19:33:02.570Z,7.32
2023-04-23T19:35:29.700Z,7.93
2023-04-23T19:37:56.833Z,7.28
2023-04-23T19:40:24.115Z,8.65
2023-04-23T19:42:51.407Z,7.43
2023-04-23T19:45:18.686Z,7.50
2023-04-23T19:47:45.706Z,7.78
2023-04-23T19:50:14.083Z,7.80
2023-04-23T19:52:41.693Z,7.80
2023-04-23T19:55:09.062Z,7.30
2023-04-23T19:57:36.853Z,8.15
2023-04-23T20:00:13.463Z,7.38
2023-04-23T20:02:41.468Z,7.97
2023-04-23T20:05:10.568Z,7.22
2023-04-23T20:07:38.841Z,7.88
2023-04-23T20:10:06.512Z,6.53
2023-04-23T20:12:33.987Z,8.75
2023-04-23T20:15:01.061Z,7.50
2023-04-23T20:17:32.926Z,7.00
2023-04-23T20:20:01.750Z,6.57
2023-04-23T20:22:36.888Z,7.43
2023-04-23T20:25:05.288Z,7.00
2023-04-23T20:27:33.804Z,6.30
2023-04-23T20:30:00.868Z,6.25
2023-04-23T20:32:32.496Z,6.15
2023-04-23T20:35:00.345Z,6.38
2023-04-23T20:37:28.480Z,6.93
2023-04-23T20:39:56.111Z,6.80
2023-04-23T20:42:23.255Z,7.30
2023-04-23T20:44:52.067Z,6.32
2023-04-23T20:47:19.066Z,39.58
2023-04-23T20:49:46.319Z,10.35
2023-04-23T20:52:14.727Z,7.50
2023-04-23T20:54:42.287Z,6.05
2023-04-23T20:57:09.341Z,5.97
2023-04-23T20:59:36.388Z,6.20
2023-04-23T21:02:03.643Z,6.15
2023-04-23T21:04:31.243Z,5.93
2023-04-23T21:06:58.613Z,6.43
2023-04-23T21:09:25.988Z,6.25
2023-04-23T21:11:53.841Z,5.88
2023-04-23T21:14:21.115Z,6.10
2023-04-23T21:16:47.999Z,5.90
2023-04-23T21:19:15.569Z,5.72
2023-04-23T21:21:42.524Z,5.57
2023-04-23T21:24:09.686Z,6.45
2023-04-23T21:26:36.717Z,12.85
2023-04-23T21:29:04.421Z,6.05
2023-04-23T21:31:47.371Z,6.05
2023-04-23T21:34:15.497Z,6.50
2023-04-23T21:36:44.824Z,6.63
2023-04-23T21:39:13.296Z,7.07
2023-04-23T21:41:40.749Z,6.43
2023-04-23T21:44:10.960Z,7.18
2023-04-23T21:46:38.469Z,6.70
2023-04-23T21:49:05.749Z,7.03
2023-04-23T21:51:37.126Z,6.57
2023-04-23T21:54:05.980Z,6.55
2023-04-23T21:56:34.175Z,6.47
2023-04-23T21:59:02.218Z,6.28
2023-04-23T22:01:29.477Z,6.78
2023-04-23T22:03:56.512Z,6.57
2023-04-23T22:06:23.734Z,6.40
2023-04-23T22:08:52.416Z,6.75
2023-04-23T22:11:19.614Z,6.72
2023-04-23T22:13:46.666Z,7.20
2023-04-23T22:16:27.486Z,6.68
2023-04-23T22:18:57.068Z,6.78
2023-04-23T22:21:24.400Z,7.10
2023-04-23T22:23:52.380Z,7.65
2023-04-23T22:26:19.811Z,8.82
2023-04-23T22:28:47.108Z,9.75
2023-04-23T22:31:14.781Z,10.15
2023-04-23T22:33:41.959Z,10.55
2023-04-23T22:36:09.058Z,9.52
2023-04-23T22:38:36.370Z,9.60
2023-04-23T22:41:03.431Z,9.43
2023-04-23T22:43:30.445Z,8.77
2023-04-23T22:45:57.555Z,25.70
2023-04-23T22:48:24.576Z,6.18
2023-04-23T22:50:52.683Z,5.95
2023-04-23T22:53:19.832Z,6.00
2023-04-23T22:55:47.291Z,5.78
2023-04-23T22:58:14.381Z,6.05
2023-04-23T23:00:41.874Z,5.35
2023-04-23T23:03:09.456Z,5.80
2023-04-23T23:05:36.650Z,5.90
2023-04-23T23:08:03.598Z,6.60
2023-04-23T23:10:30.832Z,6.32
2023-04-23T23:12:57.897Z,7.30
2023-04-23T23:15:25.142Z,6.03
2023-04-23T23:17:52.117Z,6.72
2023-04-23T23:20:19.809Z,6.80
2023-04-23T23:22:46.957Z,6.65
2023-04-23T23:25:16.257Z,6.27
2023-04-23T23:27:43.332Z,6.05
2023-04-23T23:30:10.757Z,6.88
2023-04-23T23:32:37.931Z,7.40
2023-04-23T23:35:06.490Z,8.07
2023-04-23T23:37:52.735Z,7.93
2023-04-23T23:40:20.915Z,8.07
2023-04-23T23:42:47.858Z,7.80
2023-04-23T23:45:15.367Z,9.32
2023-04-23T23:47:42.452Z,8.00
2023-04-23T23:50:10.123Z,8.02
2023-04-23T23:52:37.174Z,8.70
2023-04-23T23:55:07.862Z,8.55
2023-04-23T23:57:35.098Z,8.05
